Marquette, MI

11:34 AM EDT on May 24, 2015 (GMT -0400)
Ford | | Change Station
CLOSE
Current Station
Airport
Location: Iron Mountain,
Elevation: 1181 ft
Nearby Weather Stations

Elev 1181 ft 45.82 °N, 88.11 °W | Updated 40 minutes ago

Partly Cloudy
Partly Cloudy
72 °F
Feels Like 72 °F
N
6
Wind Variable Wind from SSE

Today
High -- | Low -- °F
--% Chance of Precip.
Yesterday
High -- | Low -- °F
Precip. -- in
6:06 AM 9:26 PM
Waxing Crescent, 40% visible
Pressure 30.12 in
Visibility 10.0 miles
Clouds Few 9000 ft
Dew Point 46 °F
Humidity 40%
Rainfall 0.00 in
Snow Depth Not available.
UV 6 out of 12
Pollen 7.40 out of 12
Air Quality Not available.
Flu Activity Sporadic
METAR KIMT 241454Z AUTO 16005KT 10SM FEW090 22/08 A3013 RMK AO2 SLP199 T02220078 56009 TSNO

More Conditions Fewer Conditions

Pressure 30.12 in
Visibility 10.0 miles
Clouds Few 9000 ft
Dew Point 46 °F
Humidity 40%
Rainfall 0.00 in
Snow Depth Not available.
UV 6 out of 12
Pollen 7.40 out of 12
Air Quality Not available.
Flu Activity Sporadic
METAR KIMT 241454Z AUTO 16005KT 10SM FEW090 22/08 A3013 RMK AO2 SLP199 T02220078 56009 TSNO

More Conditions Fewer Conditions

10-Day Weather Forecast

Almanac

Astronomy

May. 24, 2015 Rise Set
Actual Time
Civil Twilight
Nautical Twilight
Astronomical Twilight
Moon
Length of Visible Light
Length of Day
Tomorrow will be .
, % of the Moon is Illuminated

Today's Extremes

State Highs State Lows

Community

WunderPhotos

Upload Photos

1,823,770 photos uploaded!

WunderBlogs® & News

Nearby

Air Quality

  Air Quality AQ Index Pollutant
Not available.

Snow Depth

Station Depth Elevation

Earthquake Activity

City Distance Mag. Time & Date
Minimum magnitude displayed is 2.5.

Coastal Water Temperatures

Place Temperature

Stations

Nearby Weather Stations

Station Location Temp. Windchill Dew Point Humidity Wind Precip. Elev Updated Type